createdAt,value
2023-04-16T00:02:24.716Z,10.40
2023-04-16T00:05:00.468Z,10.30
2023-04-16T00:07:35.180Z,10.30
2023-04-16T00:10:09.089Z,10.30
2023-04-16T00:12:44.487Z,10.30
2023-04-16T00:15:17.337Z,10.30
2023-04-16T00:17:51.749Z,10.30
2023-04-16T00:20:24.576Z,10.30
2023-04-16T00:26:39.093Z,10.40
2023-04-16T00:32:28.887Z,10.40
2023-04-16T00:38:24.564Z,10.30
2023-04-16T00:44:23.724Z,10.40
2023-04-16T00:50:29.889Z,10.40
2023-04-16T00:56:24.525Z,10.40
2023-04-16T00:59:19.654Z,10.40
2023-04-16T01:02:14.958Z,10.30
2023-04-16T01:05:05.810Z,10.40
2023-04-16T01:07:59.495Z,10.40
2023-04-16T01:13:56.900Z,10.30
2023-04-16T01:16:35.451Z,10.30
2023-04-16T01:20:05.807Z,10.30
2023-04-16T01:23:06.087Z,10.20
2023-04-16T01:25:56.339Z,10.10
2023-04-16T01:29:00.892Z,10.10
2023-04-16T01:31:48.551Z,10.00
2023-04-16T01:34:41.455Z,10.00
2023-04-16T01:37:31.146Z,10.00
2023-04-16T01:43:28.135Z,9.70
2023-04-16T01:49:36.580Z,9.60
2023-04-16T01:55:35.495Z,9.50
2023-04-16T02:01:31.652Z,9.50
2023-04-16T02:07:39.381Z,9.50
2023-04-16T02:10:39.659Z,9.60
2023-04-16T02:13:26.542Z,9.60
2023-04-16T02:16:00.274Z,9.50
2023-04-16T02:18:47.963Z,9.50
2023-04-16T02:21:38.336Z,9.50
2023-04-16T02:24:33.974Z,9.50
2023-04-16T02:30:42.104Z,9.50
2023-04-16T02:36:38.926Z,9.50
2023-04-16T02:39:31.528Z,9.40
2023-04-16T02:42:19.691Z,9.50
2023-04-16T02:45:24.164Z,9.40
2023-04-16T02:48:23.564Z,9.40
2023-04-16T02:54:16.481Z,9.40
2023-04-16T03:00:20.329Z,9.40
2023-04-16T03:03:12.138Z,9.50
2023-04-16T03:05:53.248Z,9.50
2023-04-16T03:08:22.768Z,9.60
2023-04-16T03:11:00.813Z,9.60
2023-04-16T03:13:30.184Z,9.60
2023-04-16T03:16:19.252Z,9.60
2023-04-16T03:19:04.621Z,9.70
2023-04-16T03:21:48.969Z,9.60
2023-04-16T03:24:37.405Z,9.60
2023-04-16T03:27:19.324Z,9.60
2023-04-16T03:30:04.041Z,9.60
2023-04-16T03:32:50.139Z,9.60
2023-04-16T03:35:39.250Z,9.60
2023-04-16T03:38:21.125Z,9.60
2023-04-16T03:41:02.721Z,9.60
2023-04-16T03:43:41.699Z,9.70
2023-04-16T03:46:14.120Z,9.70
2023-04-16T03:48:49.482Z,9.70
2023-04-16T03:51:24.726Z,9.70
2023-04-16T03:53:58.966Z,9.70
2023-04-16T03:56:39.739Z,9.70
2023-04-16T04:00:02.216Z,9.70
2023-04-16T04:06:04.566Z,9.70
2023-04-16T04:12:09.622Z,9.70
2023-04-16T04:18:04.597Z,9.70
2023-04-16T04:21:06.337Z,9.70
2023-04-16T04:24:16.289Z,9.70
2023-04-16T04:30:42.454Z,9.70
2023-04-16T04:33:36.133Z,9.70
2023-04-16T04:36:30.415Z,9.80
2023-04-16T04:39:22.374Z,9.70
2023-04-16T04:42:10.377Z,9.70
2023-04-16T04:48:05.177Z,9.80
2023-04-16T04:53:55.819Z,9.80
2023-04-16T04:56:25.574Z,9.90
2023-04-16T04:58:58.926Z,9.90
2023-04-16T05:01:33.368Z,10.00
2023-04-16T05:04:33.256Z,10.00
2023-04-16T05:10:36.094Z,10.10
2023-04-16T05:13:32.210Z,10.10
2023-04-16T05:16:25.915Z,10.10
2023-04-16T05:22:18.616Z,10.20
2023-04-16T05:25:17.171Z,10.20
2023-04-16T05:28:12.460Z,10.30
2023-04-16T05:31:04.330Z,10.30
2023-04-16T05:33:55.110Z,10.40
2023-04-16T05:39:52.013Z,10.50
2023-04-16T05:42:47.287Z,10.60
2023-04-16T05:45:44.013Z,10.60
2023-04-16T05:48:37.164Z,10.70
2023-04-16T05:51:25.485Z,10.70
2023-04-16T05:57:21.044Z,10.70
2023-04-16T06:00:10.410Z,10.80
2023-04-16T06:02:45.046Z,10.90
2023-04-16T06:05:21.450Z,10.90
2023-04-16T06:07:55.490Z,10.90
2023-04-16T06:10:30.053Z,11.00
2023-04-16T06:13:02.332Z,11.00
2023-04-16T06:19:26.404Z,11.10
2023-04-16T06:25:56.365Z,11.20
2023-04-16T06:28:37.646Z,11.30
2023-04-16T06:31:07.543Z,11.30
2023-04-16T06:33:35.899Z,11.40
2023-04-16T06:36:05.987Z,11.40
2023-04-16T06:38:34.423Z,11.40
2023-04-16T06:41:03.484Z,11.40
2023-04-16T06:43:33.620Z,11.40
2023-04-16T06:46:01.976Z,11.40
2023-04-16T06:48:30.323Z,11.40
2023-04-16T06:50:58.715Z,11.50
2023-04-16T06:53:28.568Z,11.50
2023-04-16T06:55:56.888Z,11.60
2023-04-16T06:58:25.750Z,11.60
2023-04-16T07:00:54.248Z,11.70
2023-04-16T07:03:28.427Z,11.70
2023-04-16T07:05:56.951Z,11.70
2023-04-16T07:08:29.201Z,11.80
2023-04-16T07:10:58.445Z,11.80
2023-04-16T07:13:28.538Z,11.90
2023-04-16T07:15:58.189Z,12.00
2023-04-16T07:18:32.451Z,12.00
2023-04-16T07:21:07.934Z,12.00
2023-04-16T07:23:44.007Z,12.00
2023-04-16T07:26:15.101Z,12.10
2023-04-16T07:28:44.055Z,12.20
2023-04-16T07:31:12.442Z,12.20
2023-04-16T07:33:40.750Z,12.30
2023-04-16T07:36:09.367Z,12.30
2023-04-16T07:38:39.080Z,12.40
2023-04-16T07:41:07.552Z,12.50
2023-04-16T07:43:35.968Z,12.60
2023-04-16T07:46:04.424Z,12.70
2023-04-16T07:48:32.831Z,12.80
2023-04-16T07:51:01.285Z,12.90
2023-04-16T07:53:30.901Z,12.90
2023-04-16T07:56:00.742Z,12.90
2023-04-16T07:58:29.178Z,13.00
2023-04-16T08:00:57.663Z,13.10
2023-04-16T08:03:26.727Z,13.20
2023-04-16T08:05:55.395Z,13.30
2023-04-16T08:08:24.012Z,13.40
2023-04-16T08:10:56.218Z,13.40
2023-04-16T08:13:26.337Z,13.40
2023-04-16T08:15:54.660Z,13.40
2023-04-16T08:18:23.687Z,13.50
2023-04-16T08:20:52.126Z,13.60
2023-04-16T08:23:20.554Z,13.70
2023-04-16T08:25:50.114Z,13.70
2023-04-16T08:28:19.561Z,13.80
2023-04-16T08:30:49.266Z,13.80
2023-04-16T08:33:17.613Z,13.70
2023-04-16T08:35:49.653Z,13.70
2023-04-16T08:38:18.071Z,13.70
2023-04-16T08:40:48.371Z,13.80
2023-04-16T08:43:19.556Z,13.90
2023-04-16T08:45:51.340Z,14.00
2023-04-16T08:48:24.508Z,14.00
2023-04-16T08:50:55.462Z,14.10
2023-04-16T08:53:34.367Z,14.20
2023-04-16T08:56:06.946Z,14.50
2023-04-16T08:58:39.498Z,14.90
2023-04-16T09:01:13.040Z,15.20
2023-04-16T09:03:42.836Z,15.40
2023-04-16T09:06:12.049Z,15.50
2023-04-16T09:08:40.832Z,15.60
2023-04-16T09:11:09.332Z,15.50
2023-04-16T09:13:40.988Z,15.50
2023-04-16T09:16:15.390Z,15.50
2023-04-16T09:18:51.445Z,15.60
2023-04-16T09:21:27.862Z,15.60
2023-04-16T09:23:59.479Z,15.50
2023-04-16T09:31:03.478Z,15.90
2023-04-16T09:36:26.585Z,16.30
2023-04-16T09:38:57.783Z,16.40
2023-04-16T09:41:28.281Z,16.50
2023-04-16T09:43:58.043Z,16.50
2023-04-16T09:46:30.973Z,16.50
2023-04-16T09:48:59.067Z,16.40
2023-04-16T09:51:37.726Z,16.10
2023-04-16T09:54:06.805Z,15.70
2023-04-16T09:56:40.514Z,15.60
2023-04-16T09:59:10.057Z,15.60
2023-04-16T10:01:39.160Z,15.40
2023-04-16T10:04:34.283Z,15.30
2023-04-16T10:07:07.941Z,15.30
2023-04-16T10:09:39.312Z,15.30
2023-04-16T10:12:08.522Z,15.30
2023-04-16T10:14:37.255Z,15.30
2023-04-16T10:17:06.482Z,15.40
2023-04-16T10:19:35.365Z,15.50
2023-04-16T10:22:04.439Z,15.50
2023-04-16T10:24:35.924Z,15.60
2023-04-16T10:27:04.329Z,15.70
2023-04-16T10:29:34.098Z,15.70
2023-04-16T10:32:03.499Z,15.80
2023-04-16T10:34:33.464Z,15.70
2023-04-16T10:37:01.806Z,15.60
2023-04-16T10:39:30.499Z,15.60
2023-04-16T10:42:11.901Z,15.50
2023-04-16T10:44:45.259Z,15.60
2023-04-16T10:47:15.326Z,15.70
2023-04-16T10:49:44.173Z,15.70
2023-04-16T10:52:18.650Z,15.90
2023-04-16T10:54:48.401Z,16.00
2023-04-16T10:57:20.693Z,16.10
2023-04-16T10:59:50.423Z,16.10
2023-04-16T11:02:19.866Z,16.10
2023-04-16T11:04:52.534Z,16.10
2023-04-16T11:07:22.503Z,16.00
2023-04-16T11:09:56.822Z,15.90
2023-04-16T11:12:33.012Z,15.80
2023-04-16T11:15:03.550Z,15.70
2023-04-16T11:17:35.124Z,15.70
2023-04-16T11:20:04.378Z,15.70
2023-04-16T11:22:47.217Z,15.50
2023-04-16T11:25:21.116Z,15.40
2023-04-16T11:27:51.087Z,15.20
2023-04-16T11:30:23.381Z,15.20
2023-04-16T11:32:52.487Z,15.20
2023-04-16T11:35:24.220Z,15.20
2023-04-16T11:37:58.363Z,15.30
2023-04-16T11:40:30.937Z,15.30
2023-04-16T11:43:14.199Z,15.40
2023-04-16T11:45:43.263Z,15.40
2023-04-16T11:48:12.105Z,15.30
2023-04-16T11:50:40.438Z,15.40
2023-04-16T11:53:09.184Z,15.40
2023-04-16T11:55:45.936Z,15.50
2023-04-16T11:58:19.606Z,15.70
2023-04-16T12:00:48.990Z,16.00
2023-04-16T12:03:20.364Z,16.20
2023-04-16T12:05:48.792Z,16.50
2023-04-16T12:08:41.290Z,16.80
2023-04-16T12:11:11.627Z,17.00
2023-04-16T12:13:48.505Z,17.10
2023-04-16T12:16:25.266Z,16.90
2023-04-16T12:19:14.072Z,16.80
2023-04-16T12:21:45.230Z,16.70
2023-04-16T12:24:19.842Z,16.70
2023-04-16T12:26:56.725Z,16.70
2023-04-16T12:29:32.188Z,16.60
2023-04-16T12:32:02.445Z,16.60
2023-04-16T12:34:48.468Z,16.60
2023-04-16T12:37:20.889Z,16.40
2023-04-16T12:39:52.362Z,16.20
2023-04-16T12:42:24.578Z,16.00
2023-04-16T12:45:00.466Z,15.80
2023-04-16T12:47:31.781Z,15.60
2023-04-16T12:50:02.762Z,15.70
2023-04-16T12:52:31.943Z,15.70
2023-04-16T12:55:00.382Z,15.80
2023-04-16T12:57:30.316Z,15.80
2023-04-16T13:00:11.860Z,15.80
2023-04-16T13:02:41.511Z,15.70
2023-04-16T13:05:11.906Z,15.60
2023-04-16T13:07:42.682Z,15.70
2023-04-16T13:10:14.049Z,15.90
2023-04-16T13:12:45.284Z,15.90
2023-04-16T13:15:17.988Z,15.90
2023-04-16T13:17:52.948Z,15.90
2023-04-16T13:20:24.589Z,16.20
2023-04-16T13:22:56.998Z,16.50
2023-04-16T13:25:26.113Z,16.60
2023-04-16T13:27:56.116Z,16.50
2023-04-16T13:30:30.896Z,16.40
2023-04-16T13:33:05.138Z,16.60
2023-04-16T13:35:34.947Z,16.90
2023-04-16T13:38:07.021Z,17.40
2023-04-16T13:40:39.325Z,18.20
2023-04-16T13:43:10.219Z,18.40
2023-04-16T13:45:40.588Z,18.50
2023-04-16T13:48:13.021Z,18.40
2023-04-16T13:50:44.349Z,18.10
2023-04-16T13:53:13.739Z,18.00
2023-04-16T13:55:45.292Z,17.80
2023-04-16T13:58:17.819Z,17.70
2023-04-16T14:00:53.020Z,17.50
2023-04-16T14:03:27.375Z,17.20
2023-04-16T14:05:57.901Z,16.90
2023-04-16T14:08:26.442Z,16.80
2023-04-16T14:10:55.741Z,16.60
2023-04-16T14:13:24.132Z,16.50
2023-04-16T14:15:54.897Z,16.50
2023-04-16T14:18:23.602Z,16.50
2023-04-16T14:20:51.869Z,16.30
2023-04-16T14:23:20.034Z,16.20
2023-04-16T14:25:48.306Z,16.10
2023-04-16T14:28:16.556Z,16.00
2023-04-16T14:30:47.180Z,15.90
2023-04-16T14:33:16.910Z,15.80
2023-04-16T14:35:45.103Z,15.70
2023-04-16T14:38:13.310Z,15.70
2023-04-16T14:40:42.808Z,15.50
2023-04-16T14:43:11.643Z,15.50
2023-04-16T14:45:44.506Z,15.40
2023-04-16T14:48:12.708Z,15.40
2023-04-16T14:50:44.065Z,15.40
2023-04-16T14:53:13.417Z,15.30
2023-04-16T14:55:45.174Z,15.30
2023-04-16T14:58:13.378Z,15.20
2023-04-16T15:00:41.515Z,15.00
2023-04-16T15:03:10.012Z,14.80
2023-04-16T15:05:50.896Z,14.70
2023-04-16T15:08:20.088Z,14.50
2023-04-16T15:10:48.484Z,14.40
2023-04-16T15:13:18.712Z,14.30
2023-04-16T15:15:46.993Z,14.40
2023-04-16T15:18:16.399Z,14.30
2023-04-16T15:20:51.639Z,14.40
2023-04-16T15:23:21.172Z,14.30
2023-04-16T15:25:50.777Z,14.10
2023-04-16T15:28:19.030Z,14.10
2023-04-16T15:30:47.212Z,14.00
2023-04-16T15:33:15.558Z,14.00
2023-04-16T15:35:45.169Z,13.90
2023-04-16T15:38:14.100Z,13.90
2023-04-16T15:40:43.656Z,14.00
2023-04-16T15:43:11.974Z,14.10
2023-04-16T15:45:40.816Z,14.30
2023-04-16T15:48:09.200Z,14.30
2023-04-16T15:50:37.847Z,14.10
2023-04-16T15:53:07.428Z,14.10
2023-04-16T15:55:36.310Z,14.10
2023-04-16T15:58:07.007Z,14.00
2023-04-16T16:00:35.233Z,13.90
2023-04-16T16:03:04.307Z,13.80
2023-04-16T16:05:32.756Z,13.80
2023-04-16T16:08:03.181Z,13.70
2023-04-16T16:10:34.217Z,13.60
2023-04-16T16:13:06.075Z,13.60
2023-04-16T16:15:34.529Z,13.70
2023-04-16T16:18:02.944Z,13.70
2023-04-16T16:20:32.005Z,13.70
2023-04-16T16:23:00.164Z,13.70
2023-04-16T16:28:33.019Z,13.70
2023-04-16T16:31:27.532Z,13.70
2023-04-16T16:33:55.848Z,13.70
2023-04-16T16:36:24.322Z,13.60
2023-04-16T16:38:53.092Z,13.50
2023-04-16T16:41:21.589Z,13.40
2023-04-16T16:43:51.424Z,13.40
2023-04-16T16:46:20.943Z,13.20
2023-04-16T16:49:24.231Z,13.10
2023-04-16T16:51:52.812Z,13.10
2023-04-16T16:54:24.654Z,13.10
2023-04-16T16:56:55.759Z,13.10
2023-04-16T16:59:25.874Z,13.10
2023-04-16T17:01:54.280Z,13.00
2023-04-16T17:04:23.021Z,13.00
2023-04-16T17:06:51.487Z,12.90
2023-04-16T17:09:19.931Z,12.80
2023-04-16T17:11:49.852Z,12.80
2023-04-16T17:14:19.628Z,12.80
2023-04-16T17:16:52.410Z,12.70
2023-04-16T17:19:21.956Z,12.70
2023-04-16T17:21:54.154Z,12.70
2023-04-16T17:24:22.855Z,12.60
2023-04-16T17:26:52.001Z,12.70
2023-04-16T17:29:26.100Z,12.60
2023-04-16T17:31:56.032Z,12.60
2023-04-16T17:34:28.056Z,12.60
2023-04-16T17:36:57.668Z,12.60
2023-04-16T17:39:28.132Z,12.60
2023-04-16T17:41:58.543Z,12.60
2023-04-16T17:44:28.072Z,12.50
2023-04-16T17:46:59.772Z,12.50
2023-04-16T17:49:28.028Z,12.40
2023-04-16T17:51:56.297Z,12.30
2023-04-16T17:54:24.998Z,12.30
2023-04-16T17:56:53.317Z,12.30
2023-04-16T17:59:21.618Z,12.30
2023-04-16T18:01:50.638Z,12.20
2023-04-16T18:04:20.534Z,12.10
2023-04-16T18:06:49.025Z,12.10
2023-04-16T18:09:20.538Z,12.00
2023-04-16T18:11:48.840Z,12.00
2023-04-16T18:14:20.128Z,11.90
2023-04-16T18:16:49.267Z,11.90
2023-04-16T18:19:17.636Z,11.80
2023-04-16T18:21:47.396Z,11.70
2023-04-16T18:24:16.013Z,11.70
2023-04-16T18:26:46.696Z,11.60
2023-04-16T18:29:15.573Z,11.60
2023-04-16T18:31:48.145Z,11.60
2023-04-16T18:34:16.459Z,11.60
2023-04-16T18:36:46.257Z,11.60
2023-04-16T18:39:14.774Z,11.70
2023-04-16T18:41:43.884Z,11.60
2023-04-16T18:44:12.618Z,11.60
2023-04-16T18:46:40.946Z,11.50
2023-04-16T18:49:09.381Z,11.50
2023-04-16T18:51:37.823Z,11.40
2023-04-16T18:54:08.541Z,11.40
2023-04-16T18:56:36.922Z,11.30
2023-04-16T18:59:05.331Z,11.30
2023-04-16T19:01:33.972Z,11.30
2023-04-16T19:04:03.163Z,11.20
2023-04-16T19:06:32.281Z,11.30
2023-04-16T19:09:00.540Z,11.30
2023-04-16T19:11:30.058Z,11.30
2023-04-16T19:14:01.984Z,11.30
2023-04-16T19:16:33.147Z,11.40
2023-04-16T19:19:01.416Z,11.30
2023-04-16T19:21:35.752Z,11.30
2023-04-16T19:24:03.966Z,11.30
2023-04-16T19:26:33.584Z,11.20
2023-04-16T19:29:02.460Z,11.20
2023-04-16T19:31:30.859Z,11.30
2023-04-16T19:33:58.995Z,11.30
2023-04-16T19:36:29.555Z,11.30
2023-04-16T19:39:07.256Z,11.40
2023-04-16T19:41:37.120Z,11.40
2023-04-16T19:44:05.696Z,11.30
2023-04-16T19:46:34.283Z,11.30
2023-04-16T19:49:03.278Z,11.40
2023-04-16T19:51:33.587Z,11.30
2023-04-16T19:54:02.027Z,11.30
2023-04-16T19:56:30.954Z,11.20
2023-04-16T19:59:01.505Z,11.10
2023-04-16T20:01:33.035Z,11.00
2023-04-16T20:04:08.513Z,11.00
2023-04-16T20:06:42.303Z,11.00
2023-04-16T20:09:20.462Z,11.10
2023-04-16T20:11:49.939Z,11.10
2023-04-16T20:14:19.656Z,11.10
2023-04-16T20:16:48.255Z,11.10
2023-04-16T20:19:17.164Z,11.10
2023-04-16T20:21:45.576Z,11.10
2023-04-16T20:24:15.659Z,11.10
2023-04-16T20:26:45.541Z,11.10
2023-04-16T20:29:14.998Z,11.10
2023-04-16T20:31:46.333Z,11.20
2023-04-16T20:34:14.496Z,11.20
2023-04-16T20:36:42.597Z,11.20
2023-04-16T20:39:11.289Z,11.10
2023-04-16T20:41:45.560Z,11.10
2023-04-16T20:44:18.138Z,11.10
2023-04-16T20:46:49.829Z,11.10
2023-04-16T20:49:21.510Z,11.10
2023-04-16T20:51:50.418Z,11.10
2023-04-16T20:54:18.868Z,11.10
2023-04-16T20:56:47.264Z,11.20
2023-04-16T20:59:15.383Z,11.20
2023-04-16T21:01:43.514Z,11.20
2023-04-16T21:04:17.706Z,11.20
2023-04-16T21:06:45.956Z,11.10
2023-04-16T21:09:14.539Z,11.20
2023-04-16T21:11:42.624Z,11.20
2023-04-16T21:14:10.938Z,11.20
2023-04-16T21:16:39.180Z,11.10
2023-04-16T21:19:08.943Z,11.10
2023-04-16T21:21:39.538Z,11.00
2023-04-16T21:24:08.439Z,10.90
2023-04-16T21:26:38.214Z,11.00
2023-04-16T21:29:08.843Z,11.00
2023-04-16T21:31:37.337Z,11.00
2023-04-16T21:34:05.592Z,11.10
2023-04-16T21:36:34.257Z,11.10
2023-04-16T21:39:03.855Z,11.10
2023-04-16T21:41:32.039Z,11.10
2023-04-16T21:44:00.221Z,11.10
2023-04-16T21:46:32.922Z,11.10
2023-04-16T21:49:01.368Z,11.10
2023-04-16T21:51:30.166Z,11.10
2023-04-16T21:53:58.497Z,11.10
2023-04-16T21:56:28.809Z,11.10
2023-04-16T21:58:56.961Z,11.10
2023-04-16T22:01:25.686Z,11.10
2023-04-16T22:03:55.370Z,11.00
2023-04-16T22:06:23.972Z,11.00
2023-04-16T22:08:53.526Z,11.00
2023-04-16T22:11:21.704Z,10.90
2023-04-16T22:13:51.915Z,10.90
2023-04-16T22:16:20.835Z,10.90
2023-04-16T22:18:51.366Z,10.80
2023-04-16T22:21:19.646Z,10.80
2023-04-16T22:23:51.795Z,10.80
2023-04-16T22:26:27.489Z,10.80
2023-04-16T22:28:58.021Z,10.90
2023-04-16T22:31:29.377Z,10.90
2023-04-16T22:33:57.545Z,10.80
2023-04-16T22:36:29.447Z,10.80
2023-04-16T22:38:58.003Z,10.80
2023-04-16T22:41:27.183Z,10.80
2023-04-16T22:43:57.802Z,10.80
2023-04-16T22:46:26.656Z,10.80
2023-04-16T22:48:54.878Z,10.80
2023-04-16T22:51:24.505Z,10.80
2023-04-16T22:53:53.027Z,10.80
2023-04-16T22:56:21.459Z,10.80
2023-04-16T22:58:50.475Z,10.80
2023-04-16T23:01:20.073Z,10.80
2023-04-16T23:03:48.270Z,10.80
2023-04-16T23:06:16.842Z,10.70
2023-04-16T23:08:49.074Z,10.70
2023-04-16T23:11:17.299Z,10.60
2023-04-16T23:13:45.602Z,10.60
2023-04-16T23:16:13.791Z,10.60
2023-04-16T23:18:43.465Z,10.60
2023-04-16T23:21:11.570Z,10.50
2023-04-16T23:23:39.764Z,10.50
2023-04-16T23:26:07.909Z,10.40
2023-04-16T23:28:36.066Z,10.40
2023-04-16T23:31:06.029Z,10.40
2023-04-16T23:33:35.522Z,10.40
2023-04-16T23:36:05.598Z,10.30
2023-04-16T23:38:34.415Z,10.40
2023-04-16T23:41:02.578Z,10.40
2023-04-16T23:43:30.706Z,10.40
2023-04-16T23:45:59.303Z,10.40
2023-04-16T23:48:28.462Z,10.30
2023-04-16T23:50:56.695Z,10.30
2023-04-16T23:53:30.693Z,10.30
2023-04-16T23:55:58.901Z,10.30
2023-04-16T23:58:27.020Z,10.30
